sensor_id;sensor_type;location;lat;lon;timestamp;P1;durP1;ratioP1;P2;durP2;ratioP2
46407;SDS011;32110;45.724;21.276;2024-03-07T00:02:14;26.65;;;12.35;;
46407;SDS011;32110;45.724;21.276;2024-03-07T00:04:42;25.98;;;12.38;;
46407;SDS011;32110;45.724;21.276;2024-03-07T00:07:08;24.25;;;11.77;;
46407;SDS011;32110;45.724;21.276;2024-03-07T00:09:34;25.05;;;11.98;;
46407;SDS011;32110;45.724;21.276;2024-03-07T00:12:00;24.80;;;12.40;;
46407;SDS011;32110;45.724;21.276;2024-03-07T00:14:26;22.65;;;12.40;;
46407;SDS011;32110;45.724;21.276;2024-03-07T00:16:52;24.88;;;12.93;;
46407;SDS011;32110;45.724;21.276;2024-03-07T00:19:19;26.50;;;13.13;;
46407;SDS011;32110;45.724;21.276;2024-03-07T00:21:46;25.20;;;11.75;;
46407;SDS011;32110;45.724;21.276;2024-03-07T00:24:11;23.50;;;11.77;;
46407;SDS011;32110;45.724;21.276;2024-03-07T00:26:38;21.40;;;11.80;;
46407;SDS011;32110;45.724;21.276;2024-03-07T00:29:06;20.63;;;10.55;;
46407;SDS011;32110;45.724;21.276;2024-03-07T00:31:31;18.33;;;10.80;;
46407;SDS011;32110;45.724;21.276;2024-03-07T00:33:58;19.83;;;10.27;;
46407;SDS011;32110;45.724;21.276;2024-03-07T00:36:23;18.50;;;10.20;;
46407;SDS011;32110;45.724;21.276;2024-03-07T00:38:49;22.15;;;10.68;;
46407;SDS011;32110;45.724;21.276;2024-03-07T00:41:15;20.00;;;10.18;;
46407;SDS011;32110;45.724;21.276;2024-03-07T00:43:42;18.33;;;10.10;;
46407;SDS011;32110;45.724;21.276;2024-03-07T00:46:08;18.98;;;9.88;;
46407;SDS011;32110;45.724;21.276;2024-03-07T00:48:33;16.80;;;9.52;;
46407;SDS011;32110;45.724;21.276;2024-03-07T00:50:59;18.42;;;10.48;;
46407;SDS011;32110;45.724;21.276;2024-03-07T00:53:24;23.42;;;10.50;;
46407;SDS011;32110;45.724;21.276;2024-03-07T00:55:50;20.00;;;9.90;;
46407;SDS011;32110;45.724;21.276;2024-03-07T00:58:16;20.30;;;10.38;;
46407;SDS011;32110;45.724;21.276;2024-03-07T01:00:41;17.42;;;10.15;;
46407;SDS011;32110;45.724;21.276;2024-03-07T01:03:11;20.10;;;10.02;;
46407;SDS011;32110;45.724;21.276;2024-03-07T01:05:38;19.08;;;9.77;;
46407;SDS011;32110;45.724;21.276;2024-03-07T01:08:04;19.73;;;10.10;;
46407;SDS011;32110;45.724;21.276;2024-03-07T01:10:30;21.30;;;10.90;;
46407;SDS011;32110;45.724;21.276;2024-03-07T01:12:56;21.73;;;10.55;;
46407;SDS011;32110;45.724;21.276;2024-03-07T01:15:25;20.98;;;10.45;;
46407;SDS011;32110;45.724;21.276;2024-03-07T01:17:51;19.38;;;9.82;;
46407;SDS011;32110;45.724;21.276;2024-03-07T01:20:16;24.52;;;10.50;;
46407;SDS011;32110;45.724;21.276;2024-03-07T01:22:42;22.20;;;10.63;;
46407;SDS011;32110;45.724;21.276;2024-03-07T01:25:07;22.75;;;10.50;;
46407;SDS011;32110;45.724;21.276;2024-03-07T01:27:33;22.77;;;11.02;;
46407;SDS011;32110;45.724;21.276;2024-03-07T01:29:58;22.13;;;11.27;;
46407;SDS011;32110;45.724;21.276;2024-03-07T01:32:24;21.73;;;11.30;;
46407;SDS011;32110;45.724;21.276;2024-03-07T01:34:49;20.38;;;11.68;;
46407;SDS011;32110;45.724;21.276;2024-03-07T01:37:15;20.70;;;10.73;;
46407;SDS011;32110;45.724;21.276;2024-03-07T01:39:40;21.60;;;11.48;;
46407;SDS011;32110;45.724;21.276;2024-03-07T01:42:06;22.00;;;11.15;;
46407;SDS011;32110;45.724;21.276;2024-03-07T01:44:33;24.92;;;11.93;;
46407;SDS011;32110;45.724;21.276;2024-03-07T01:46:58;22.08;;;10.82;;
46407;SDS011;32110;45.724;21.276;2024-03-07T01:49:29;24.80;;;12.05;;
46407;SDS011;32110;45.724;21.276;2024-03-07T01:51:56;24.10;;;11.57;;
46407;SDS011;32110;45.724;21.276;2024-03-07T01:54:22;24.33;;;11.48;;
46407;SDS011;32110;45.724;21.276;2024-03-07T01:56:48;22.35;;;11.23;;
46407;SDS011;32110;45.724;21.276;2024-03-07T01:59:13;24.08;;;12.23;;
46407;SDS011;32110;45.724;21.276;2024-03-07T02:01:40;24.23;;;12.30;;
46407;SDS011;32110;45.724;21.276;2024-03-07T02:04:06;24.52;;;12.25;;
46407;SDS011;32110;45.724;21.276;2024-03-07T02:06:33;23.52;;;12.05;;
46407;SDS011;32110;45.724;21.276;2024-03-07T02:08:59;24.00;;;12.73;;
46407;SDS011;32110;45.724;21.276;2024-03-07T02:11:27;25.73;;;12.52;;
46407;SDS011;32110;45.724;21.276;2024-03-07T02:13:53;25.85;;;13.18;;
46407;SDS011;32110;45.724;21.276;2024-03-07T02:16:18;23.38;;;12.10;;
46407;SDS011;32110;45.724;21.276;2024-03-07T02:18:43;23.92;;;12.25;;
46407;SDS011;32110;45.724;21.276;2024-03-07T02:21:09;27.23;;;13.23;;
46407;SDS011;32110;45.724;21.276;2024-03-07T02:23:35;28.77;;;12.93;;
46407;SDS011;32110;45.724;21.276;2024-03-07T02:26:01;26.85;;;12.75;;
46407;SDS011;32110;45.724;21.276;2024-03-07T02:28:26;25.17;;;12.93;;
46407;SDS011;32110;45.724;21.276;2024-03-07T02:30:52;25.60;;;12.75;;
46407;SDS011;32110;45.724;21.276;2024-03-07T02:33:18;26.52;;;13.43;;
46407;SDS011;32110;45.724;21.276;2024-03-07T02:35:43;24.88;;;12.25;;
46407;SDS011;32110;45.724;21.276;2024-03-07T02:38:09;25.25;;;12.93;;
46407;SDS011;32110;45.724;21.276;2024-03-07T02:40:34;22.15;;;12.48;;
46407;SDS011;32110;45.724;21.276;2024-03-07T02:43:00;26.00;;;12.80;;
46407;SDS011;32110;45.724;21.276;2024-03-07T02:45:29;27.48;;;12.93;;
46407;SDS011;32110;45.724;21.276;2024-03-07T02:47:55;29.80;;;13.52;;
46407;SDS011;32110;45.724;21.276;2024-03-07T02:50:21;26.98;;;12.88;;
46407;SDS011;32110;45.724;21.276;2024-03-07T02:52:47;28.48;;;12.93;;
46407;SDS011;32110;45.724;21.276;2024-03-07T02:55:14;30.48;;;13.55;;
46407;SDS011;32110;45.724;21.276;2024-03-07T02:57:40;28.58;;;13.70;;
46407;SDS011;32110;45.724;21.276;2024-03-07T03:00:06;29.92;;;14.48;;
46407;SDS011;32110;45.724;21.276;2024-03-07T03:02:45;30.17;;;13.70;;
46407;SDS011;32110;45.724;21.276;2024-03-07T03:05:12;32.00;;;13.93;;
46407;SDS011;32110;45.724;21.276;2024-03-07T03:07:39;29.60;;;12.85;;
46407;SDS011;32110;45.724;21.276;2024-03-07T03:10:05;32.20;;;15.00;;
46407;SDS011;32110;45.724;21.276;2024-03-07T03:12:35;35.45;;;15.88;;
46407;SDS011;32110;45.724;21.276;2024-03-07T03:15:04;34.38;;;15.07;;
46407;SDS011;32110;45.724;21.276;2024-03-07T03:17:32;34.72;;;16.17;;
46407;SDS011;32110;45.724;21.276;2024-03-07T03:19:57;37.33;;;16.08;;
46407;SDS011;32110;45.724;21.276;2024-03-07T03:22:22;35.38;;;15.88;;
46407;SDS011;32110;45.724;21.276;2024-03-07T03:24:48;33.90;;;16.23;;
46407;SDS011;32110;45.724;21.276;2024-03-07T03:27:13;41.50;;;15.60;;
46407;SDS011;32110;45.724;21.276;2024-03-07T03:29:39;38.80;;;16.40;;
46407;SDS011;32110;45.724;21.276;2024-03-07T03:32:05;39.65;;;17.02;;
46407;SDS011;32110;45.724;21.276;2024-03-07T03:34:32;40.58;;;16.85;;
46407;SDS011;32110;45.724;21.276;2024-03-07T03:36:58;42.15;;;16.73;;
46407;SDS011;32110;45.724;21.276;2024-03-07T03:39:24;40.33;;;17.77;;
46407;SDS011;32110;45.724;21.276;2024-03-07T03:41:52;36.40;;;16.10;;
46407;SDS011;32110;45.724;21.276;2024-03-07T03:44:17;35.72;;;16.50;;
46407;SDS011;32110;45.724;21.276;2024-03-07T03:46:43;42.85;;;17.50;;
46407;SDS011;32110;45.724;21.276;2024-03-07T03:49:09;42.40;;;16.85;;
46407;SDS011;32110;45.724;21.276;2024-03-07T03:51:35;40.60;;;16.73;;
46407;SDS011;32110;45.724;21.276;2024-03-07T03:54:01;39.55;;;17.63;;
46407;SDS011;32110;45.724;21.276;2024-03-07T03:56:27;41.90;;;17.67;;
46407;SDS011;32110;45.724;21.276;2024-03-07T03:58:53;43.83;;;17.15;;
46407;SDS011;32110;45.724;21.276;2024-03-07T04:01:19;41.50;;;17.88;;
46407;SDS011;32110;45.724;21.276;2024-03-07T04:03:44;39.97;;;16.48;;
46407;SDS011;32110;45.724;21.276;2024-03-07T04:06:12;40.00;;;16.85;;
46407;SDS011;32110;45.724;21.276;2024-03-07T04:08:37;38.13;;;16.80;;
46407;SDS011;32110;45.724;21.276;2024-03-07T04:11:03;36.70;;;16.73;;
46407;SDS011;32110;45.724;21.276;2024-03-07T04:13:29;38.60;;;16.48;;
46407;SDS011;32110;45.724;21.276;2024-03-07T04:15:55;37.17;;;15.75;;
46407;SDS011;32110;45.724;21.276;2024-03-07T04:18:21;35.65;;;15.73;;
46407;SDS011;32110;45.724;21.276;2024-03-07T04:20:46;38.75;;;15.35;;
46407;SDS011;32110;45.724;21.276;2024-03-07T04:23:12;30.92;;;14.25;;
46407;SDS011;32110;45.724;21.276;2024-03-07T04:25:37;30.60;;;14.07;;
46407;SDS011;32110;45.724;21.276;2024-03-07T04:28:03;35.28;;;14.55;;
46407;SDS011;32110;45.724;21.276;2024-03-07T04:30:28;31.90;;;14.35;;
46407;SDS011;32110;45.724;21.276;2024-03-07T04:32:54;31.10;;;14.48;;
46407;SDS011;32110;45.724;21.276;2024-03-07T04:35:19;29.73;;;14.48;;
46407;SDS011;32110;45.724;21.276;2024-03-07T04:37:45;27.63;;;13.95;;
46407;SDS011;32110;45.724;21.276;2024-03-07T04:40:10;30.55;;;13.93;;
46407;SDS011;32110;45.724;21.276;2024-03-07T04:45:08;29.77;;;13.80;;
46407;SDS011;32110;45.724;21.276;2024-03-07T04:47:35;27.92;;;13.32;;
46407;SDS011;32110;45.724;21.276;2024-03-07T04:50:02;29.10;;;13.40;;
46407;SDS011;32110;45.724;21.276;2024-03-07T04:52:27;32.75;;;15.15;;
46407;SDS011;32110;45.724;21.276;2024-03-07T04:54:53;35.13;;;15.50;;
46407;SDS011;32110;45.724;21.276;2024-03-07T04:57:18;33.83;;;15.23;;
46407;SDS011;32110;45.724;21.276;2024-03-07T04:59:44;34.33;;;15.75;;
46407;SDS011;32110;45.724;21.276;2024-03-07T05:02:09;37.72;;;15.35;;
46407;SDS011;32110;45.724;21.276;2024-03-07T05:04:35;37.70;;;16.30;;
46407;SDS011;32110;45.724;21.276;2024-03-07T05:07:01;35.38;;;17.02;;
46407;SDS011;32110;45.724;21.276;2024-03-07T05:09:28;38.92;;;16.75;;
46407;SDS011;32110;45.724;21.276;2024-03-07T05:11:54;37.00;;;16.23;;
46407;SDS011;32110;45.724;21.276;2024-03-07T05:14:20;34.10;;;16.10;;
46407;SDS011;32110;45.724;21.276;2024-03-07T05:16:47;40.60;;;16.73;;
46407;SDS011;32110;45.724;21.276;2024-03-07T05:19:29;33.63;;;16.38;;
46407;SDS011;32110;45.724;21.276;2024-03-07T05:21:55;33.97;;;15.25;;
46407;SDS011;32110;45.724;21.276;2024-03-07T05:24:21;32.58;;;15.07;;
46407;SDS011;32110;45.724;21.276;2024-03-07T05:26:46;37.58;;;16.27;;
46407;SDS011;32110;45.724;21.276;2024-03-07T05:29:12;37.33;;;16.80;;
46407;SDS011;32110;45.724;21.276;2024-03-07T05:31:38;36.15;;;16.05;;
46407;SDS011;32110;45.724;21.276;2024-03-07T05:34:04;34.10;;;14.75;;
46407;SDS011;32110;45.724;21.276;2024-03-07T05:39:01;30.98;;;13.50;;
46407;SDS011;32110;45.724;21.276;2024-03-07T05:41:33;24.83;;;13.13;;
46407;SDS011;32110;45.724;21.276;2024-03-07T05:43:59;22.45;;;11.60;;
46407;SDS011;32110;45.724;21.276;2024-03-07T05:46:25;24.20;;;12.18;;
46407;SDS011;32110;45.724;21.276;2024-03-07T05:48:51;22.00;;;10.60;;
46407;SDS011;32110;45.724;21.276;2024-03-07T05:51:21;23.38;;;10.57;;
46407;SDS011;32110;45.724;21.276;2024-03-07T05:53:47;19.60;;;9.60;;
46407;SDS011;32110;45.724;21.276;2024-03-07T05:56:12;18.17;;;9.40;;
46407;SDS011;32110;45.724;21.276;2024-03-07T05:58:39;18.30;;;9.38;;
46407;SDS011;32110;45.724;21.276;2024-03-07T06:01:05;15.63;;;8.60;;
46407;SDS011;32110;45.724;21.276;2024-03-07T06:03:30;18.20;;;8.80;;
46407;SDS011;32110;45.724;21.276;2024-03-07T06:05:55;16.30;;;8.32;;
46407;SDS011;32110;45.724;21.276;2024-03-07T06:08:21;16.08;;;8.10;;
46407;SDS011;32110;45.724;21.276;2024-03-07T06:10:47;14.20;;;7.50;;
46407;SDS011;32110;45.724;21.276;2024-03-07T06:13:14;14.65;;;7.63;;
46407;SDS011;32110;45.724;21.276;2024-03-07T06:15:44;20.83;;;9.75;;
46407;SDS011;32110;45.724;21.276;2024-03-07T06:18:10;25.60;;;11.48;;
46407;SDS011;32110;45.724;21.276;2024-03-07T06:20:36;24.92;;;11.38;;
46407;SDS011;32110;45.724;21.276;2024-03-07T06:23:02;16.88;;;9.10;;
46407;SDS011;32110;45.724;21.276;2024-03-07T06:25:30;19.60;;;10.02;;
46407;SDS011;32110;45.724;21.276;2024-03-07T06:28:04;17.25;;;9.15;;
46407;SDS011;32110;45.724;21.276;2024-03-07T06:30:34;16.20;;;8.88;;
46407;SDS011;32110;45.724;21.276;2024-03-07T06:33:01;16.20;;;9.05;;
46407;SDS011;32110;45.724;21.276;2024-03-07T06:35:26;18.85;;;10.07;;
46407;SDS011;32110;45.724;21.276;2024-03-07T06:37:52;17.58;;;9.75;;
46407;SDS011;32110;45.724;21.276;2024-03-07T06:40:17;27.20;;;10.00;;
46407;SDS011;32110;45.724;21.276;2024-03-07T06:42:46;16.73;;;8.82;;
46407;SDS011;32110;45.724;21.276;2024-03-07T06:45:12;18.88;;;9.52;;
46407;SDS011;32110;45.724;21.276;2024-03-07T06:47:37;19.40;;;10.73;;
46407;SDS011;32110;45.724;21.276;2024-03-07T06:50:03;17.83;;;10.38;;
46407;SDS011;32110;45.724;21.276;2024-03-07T06:52:29;16.67;;;9.15;;
46407;SDS011;32110;45.724;21.276;2024-03-07T06:54:54;16.15;;;9.00;;
46407;SDS011;32110;45.724;21.276;2024-03-07T06:57:20;21.17;;;9.52;;
46407;SDS011;32110;45.724;21.276;2024-03-07T06:59:46;16.83;;;9.13;;
46407;SDS011;32110;45.724;21.276;2024-03-07T07:02:11;19.85;;;10.82;;
46407;SDS011;32110;45.724;21.276;2024-03-07T07:04:37;15.85;;;9.25;;
46407;SDS011;32110;45.724;21.276;2024-03-07T07:07:12;20.52;;;9.98;;
46407;SDS011;32110;45.724;21.276;2024-03-07T07:09:39;17.63;;;9.93;;
46407;SDS011;32110;45.724;21.276;2024-03-07T07:12:05;15.95;;;9.38;;
46407;SDS011;32110;45.724;21.276;2024-03-07T07:14:31;15.02;;;8.45;;
46407;SDS011;32110;45.724;21.276;2024-03-07T07:16:57;16.90;;;9.13;;
46407;SDS011;32110;45.724;21.276;2024-03-07T07:19:24;21.75;;;10.05;;
46407;SDS011;32110;45.724;21.276;2024-03-07T07:21:49;17.73;;;10.32;;
46407;SDS011;32110;45.724;21.276;2024-03-07T07:24:18;18.77;;;10.13;;
46407;SDS011;32110;45.724;21.276;2024-03-07T07:26:46;18.50;;;10.57;;
46407;SDS011;32110;45.724;21.276;2024-03-07T07:29:12;22.35;;;10.40;;
46407;SDS011;32110;45.724;21.276;2024-03-07T07:31:38;15.52;;;8.43;;
46407;SDS011;32110;45.724;21.276;2024-03-07T07:34:03;17.95;;;8.43;;
46407;SDS011;32110;45.724;21.276;2024-03-07T07:36:29;18.25;;;9.30;;
46407;SDS011;32110;45.724;21.276;2024-03-07T07:38:55;14.30;;;8.43;;
46407;SDS011;32110;45.724;21.276;2024-03-07T07:41:21;14.50;;;7.65;;
46407;SDS011;32110;45.724;21.276;2024-03-07T07:43:46;11.68;;;6.55;;
46407;SDS011;32110;45.724;21.276;2024-03-07T07:46:13;9.77;;;6.15;;
46407;SDS011;32110;45.724;21.276;2024-03-07T07:48:40;11.30;;;6.63;;
46407;SDS011;32110;45.724;21.276;2024-03-07T07:51:06;11.10;;;6.32;;
46407;SDS011;32110;45.724;21.276;2024-03-07T07:53:32;10.15;;;5.78;;
46407;SDS011;32110;45.724;21.276;2024-03-07T07:55:58;11.32;;;5.40;;
46407;SDS011;32110;45.724;21.276;2024-03-07T07:58:23;10.93;;;5.88;;
46407;SDS011;32110;45.724;21.276;2024-03-07T08:00:49;8.70;;;4.97;;
46407;SDS011;32110;45.724;21.276;2024-03-07T08:03:14;8.77;;;5.30;;
46407;SDS011;32110;45.724;21.276;2024-03-07T08:05:42;11.35;;;5.85;;
46407;SDS011;32110;45.724;21.276;2024-03-07T08:08:10;11.13;;;6.00;;
46407;SDS011;32110;45.724;21.276;2024-03-07T08:10:38;8.70;;;4.83;;
46407;SDS011;32110;45.724;21.276;2024-03-07T08:13:06;9.00;;;5.20;;
46407;SDS011;32110;45.724;21.276;2024-03-07T08:15:31;9.38;;;4.72;;
46407;SDS011;32110;45.724;21.276;2024-03-07T08:17:57;8.63;;;4.88;;
46407;SDS011;32110;45.724;21.276;2024-03-07T08:20:24;9.45;;;5.95;;
46407;SDS011;32110;45.724;21.276;2024-03-07T08:22:53;10.60;;;5.65;;
46407;SDS011;32110;45.724;21.276;2024-03-07T08:25:20;11.73;;;6.53;;
46407;SDS011;32110;45.724;21.276;2024-03-07T08:27:48;11.90;;;6.80;;
46407;SDS011;32110;45.724;21.276;2024-03-07T08:30:15;10.68;;;5.85;;
46407;SDS011;32110;45.724;21.276;2024-03-07T08:32:41;8.57;;;5.10;;
46407;SDS011;32110;45.724;21.276;2024-03-07T08:35:08;8.65;;;4.85;;
46407;SDS011;32110;45.724;21.276;2024-03-07T08:37:41;6.53;;;4.40;;
46407;SDS011;32110;45.724;21.276;2024-03-07T08:40:09;7.45;;;3.97;;
46407;SDS011;32110;45.724;21.276;2024-03-07T08:42:38;7.95;;;4.25;;
46407;SDS011;32110;45.724;21.276;2024-03-07T08:45:07;7.35;;;4.07;;
46407;SDS011;32110;45.724;21.276;2024-03-07T08:47:35;5.03;;;3.50;;
46407;SDS011;32110;45.724;21.276;2024-03-07T08:50:01;7.43;;;5.03;;
46407;SDS011;32110;45.724;21.276;2024-03-07T08:52:34;5.03;;;3.55;;
46407;SDS011;32110;45.724;21.276;2024-03-07T08:55:05;7.80;;;3.75;;
46407;SDS011;32110;45.724;21.276;2024-03-07T08:57:34;9.55;;;5.43;;
46407;SDS011;32110;45.724;21.276;2024-03-07T09:00:01;10.10;;;4.90;;
46407;SDS011;32110;45.724;21.276;2024-03-07T09:02:33;5.25;;;3.17;;
46407;SDS011;32110;45.724;21.276;2024-03-07T09:05:00;7.03;;;3.83;;
46407;SDS011;32110;45.724;21.276;2024-03-07T09:07:26;7.72;;;4.50;;
46407;SDS011;32110;45.724;21.276;2024-03-07T09:09:51;4.25;;;2.85;;
46407;SDS011;32110;45.724;21.276;2024-03-07T09:12:16;5.45;;;3.67;;
46407;SDS011;32110;45.724;21.276;2024-03-07T09:14:43;4.90;;;3.05;;
46407;SDS011;32110;45.724;21.276;2024-03-07T09:17:09;3.72;;;2.60;;
46407;SDS011;32110;45.724;21.276;2024-03-07T09:19:34;4.28;;;3.00;;
46407;SDS011;32110;45.724;21.276;2024-03-07T09:22:00;5.22;;;3.72;;
46407;SDS011;32110;45.724;21.276;2024-03-07T09:24:25;6.30;;;4.15;;
46407;SDS011;32110;45.724;21.276;2024-03-07T09:26:51;6.30;;;3.78;;
46407;SDS011;32110;45.724;21.276;2024-03-07T09:29:20;8.25;;;3.78;;
46407;SDS011;32110;45.724;21.276;2024-03-07T09:31:49;6.88;;;4.30;;
46407;SDS011;32110;45.724;21.276;2024-03-07T09:34:17;7.03;;;4.53;;
46407;SDS011;32110;45.724;21.276;2024-03-07T09:36:43;5.63;;;3.60;;
46407;SDS011;32110;45.724;21.276;2024-03-07T09:39:09;5.70;;;3.30;;
46407;SDS011;32110;45.724;21.276;2024-03-07T09:41:37;4.68;;;3.20;;
46407;SDS011;32110;45.724;21.276;2024-03-07T09:44:04;5.28;;;3.33;;
46407;SDS011;32110;45.724;21.276;2024-03-07T09:46:31;6.50;;;3.83;;
46407;SDS011;32110;45.724;21.276;2024-03-07T09:48:57;5.25;;;3.92;;
46407;SDS011;32110;45.724;21.276;2024-03-07T09:51:23;5.63;;;4.70;;
46407;SDS011;32110;45.724;21.276;2024-03-07T09:53:50;6.00;;;3.58;;
46407;SDS011;32110;45.724;21.276;2024-03-07T09:56:19;7.63;;;4.22;;
46407;SDS011;32110;45.724;21.276;2024-03-07T09:58:50;5.05;;;3.17;;
46407;SDS011;32110;45.724;21.276;2024-03-07T10:01:19;4.57;;;3.47;;
46407;SDS011;32110;45.724;21.276;2024-03-07T10:03:49;5.47;;;3.45;;
46407;SDS011;32110;45.724;21.276;2024-03-07T10:06:18;6.50;;;3.75;;
46407;SDS011;32110;45.724;21.276;2024-03-07T10:08:46;5.87;;;3.90;;
46407;SDS011;32110;45.724;21.276;2024-03-07T10:11:12;5.32;;;3.35;;
46407;SDS011;32110;45.724;21.276;2024-03-07T10:13:39;3.55;;;2.85;;
46407;SDS011;32110;45.724;21.276;2024-03-07T10:16:06;6.07;;;4.03;;
46407;SDS011;32110;45.724;21.276;2024-03-07T10:18:33;4.82;;;2.97;;
46407;SDS011;32110;45.724;21.276;2024-03-07T10:21:07;37.08;;;21.75;;
46407;SDS011;32110;45.724;21.276;2024-03-07T10:23:33;27.10;;;14.98;;
46407;SDS011;32110;45.724;21.276;2024-03-07T10:25:59;6.97;;;4.47;;
46407;SDS011;32110;45.724;21.276;2024-03-07T10:28:26;4.65;;;3.45;;
46407;SDS011;32110;45.724;21.276;2024-03-07T10:30:53;6.13;;;3.20;;
46407;SDS011;32110;45.724;21.276;2024-03-07T10:33:18;5.75;;;3.67;;
46407;SDS011;32110;45.724;21.276;2024-03-07T10:35:47;9.13;;;4.30;;
46407;SDS011;32110;45.724;21.276;2024-03-07T10:38:16;7.10;;;4.72;;
46407;SDS011;32110;45.724;21.276;2024-03-07T10:40:44;7.10;;;4.50;;
46407;SDS011;32110;45.724;21.276;2024-03-07T10:43:12;4.70;;;3.28;;
46407;SDS011;32110;45.724;21.276;2024-03-07T10:45:49;5.80;;;3.90;;
46407;SDS011;32110;45.724;21.276;2024-03-07T10:48:17;5.80;;;3.55;;
46407;SDS011;32110;45.724;21.276;2024-03-07T10:51:02;4.35;;;3.30;;
46407;SDS011;32110;45.724;21.276;2024-03-07T10:59:20;5.47;;;3.42;;
46407;SDS011;32110;45.724;21.276;2024-03-07T11:02:15;4.60;;;3.45;;
46407;SDS011;32110;45.724;21.276;2024-03-07T11:04:58;5.47;;;3.13;;
46407;SDS011;32110;45.724;21.276;2024-03-07T11:07:25;5.05;;;3.38;;
46407;SDS011;32110;45.724;21.276;2024-03-07T11:09:52;5.72;;;3.58;;
46407;SDS011;32110;45.724;21.276;2024-03-07T11:12:23;5.45;;;3.58;;
46407;SDS011;32110;45.724;21.276;2024-03-07T11:14:52;5.07;;;3.60;;
46407;SDS011;32110;45.724;21.276;2024-03-07T11:17:20;6.63;;;3.80;;
46407;SDS011;32110;45.724;21.276;2024-03-07T11:19:47;5.55;;;3.55;;
46407;SDS011;32110;45.724;21.276;2024-03-07T11:22:32;6.75;;;3.47;;
46407;SDS011;32110;45.724;21.276;2024-03-07T11:25:02;6.30;;;3.88;;
46407;SDS011;32110;45.724;21.276;2024-03-07T11:27:36;6.90;;;4.32;;
46407;SDS011;32110;45.724;21.276;2024-03-07T11:30:09;7.13;;;4.32;;
46407;SDS011;32110;45.724;21.276;2024-03-07T11:32:35;4.65;;;3.28;;
46407;SDS011;32110;45.724;21.276;2024-03-07T11:35:12;6.30;;;3.33;;
46407;SDS011;32110;45.724;21.276;2024-03-07T11:37:44;7.55;;;3.88;;
46407;SDS011;32110;45.724;21.276;2024-03-07T11:40:13;5.72;;;3.45;;
46407;SDS011;32110;45.724;21.276;2024-03-07T11:43:00;5.65;;;3.50;;
46407;SDS011;32110;45.724;21.276;2024-03-07T11:45:29;5.53;;;3.60;;
46407;SDS011;32110;45.724;21.276;2024-03-07T11:47:59;4.93;;;3.22;;
46407;SDS011;32110;45.724;21.276;2024-03-07T11:50:29;4.63;;;2.88;;
46407;SDS011;32110;45.724;21.276;2024-03-07T11:53:00;3.90;;;2.58;;
46407;SDS011;32110;45.724;21.276;2024-03-07T11:55:27;4.78;;;2.78;;
46407;SDS011;32110;45.724;21.276;2024-03-07T11:58:16;5.15;;;3.40;;
46407;SDS011;32110;45.724;21.276;2024-03-07T12:00:43;6.68;;;4.22;;
46407;SDS011;32110;45.724;21.276;2024-03-07T12:03:10;6.88;;;3.97;;
46407;SDS011;32110;45.724;21.276;2024-03-07T12:05:42;5.50;;;3.35;;
46407;SDS011;32110;45.724;21.276;2024-03-07T12:08:09;6.93;;;3.65;;
46407;SDS011;32110;45.724;21.276;2024-03-07T12:10:36;5.22;;;3.75;;
46407;SDS011;32110;45.724;21.276;2024-03-07T12:13:08;7.20;;;4.05;;
46407;SDS011;32110;45.724;21.276;2024-03-07T12:15:36;7.88;;;4.50;;
46407;SDS011;32110;45.724;21.276;2024-03-07T12:18:03;6.65;;;4.25;;
46407;SDS011;32110;45.724;21.276;2024-03-07T12:20:34;7.85;;;4.70;;
46407;SDS011;32110;45.724;21.276;2024-03-07T12:23:01;6.72;;;4.10;;
46407;SDS011;32110;45.724;21.276;2024-03-07T12:25:27;10.68;;;6.05;;
46407;SDS011;32110;45.724;21.276;2024-03-07T12:30:54;10.60;;;6.28;;
46407;SDS011;32110;45.724;21.276;2024-03-07T12:33:21;9.05;;;5.75;;
46407;SDS011;32110;45.724;21.276;2024-03-07T12:35:50;8.55;;;5.85;;
46407;SDS011;32110;45.724;21.276;2024-03-07T12:38:20;9.55;;;5.78;;
46407;SDS011;32110;45.724;21.276;2024-03-07T12:41:01;7.82;;;5.35;;
46407;SDS011;32110;45.724;21.276;2024-03-07T12:43:31;10.25;;;6.13;;
46407;SDS011;32110;45.724;21.276;2024-03-07T12:45:57;9.85;;;6.95;;
46407;SDS011;32110;45.724;21.276;2024-03-07T12:48:24;7.15;;;5.32;;
46407;SDS011;32110;45.724;21.276;2024-03-07T12:50:50;7.63;;;4.55;;
46407;SDS011;32110;45.724;21.276;2024-03-07T12:53:23;8.10;;;4.80;;
46407;SDS011;32110;45.724;21.276;2024-03-07T12:55:51;7.75;;;5.40;;
46407;SDS011;32110;45.724;21.276;2024-03-07T12:58:19;7.70;;;5.22;;
46407;SDS011;32110;45.724;21.276;2024-03-07T13:00:47;9.48;;;5.75;;
46407;SDS011;32110;45.724;21.276;2024-03-07T13:03:12;7.82;;;5.25;;
46407;SDS011;32110;45.724;21.276;2024-03-07T13:05:39;8.55;;;6.05;;
46407;SDS011;32110;45.724;21.276;2024-03-07T13:08:14;8.13;;;5.45;;
46407;SDS011;32110;45.724;21.276;2024-03-07T13:10:43;6.85;;;5.18;;
46407;SDS011;32110;45.724;21.276;2024-03-07T13:13:08;7.00;;;5.10;;
46407;SDS011;32110;45.724;21.276;2024-03-07T13:15:39;8.57;;;5.05;;
46407;SDS011;32110;45.724;21.276;2024-03-07T13:18:07;9.40;;;4.47;;
46407;SDS011;32110;45.724;21.276;2024-03-07T13:20:34;8.02;;;4.53;;
46407;SDS011;32110;45.724;21.276;2024-03-07T13:23:01;6.50;;;3.88;;
46407;SDS011;32110;45.724;21.276;2024-03-07T13:25:28;6.40;;;3.40;;
46407;SDS011;32110;45.724;21.276;2024-03-07T13:28:02;5.25;;;3.50;;
46407;SDS011;32110;45.724;21.276;2024-03-07T13:30:32;5.03;;;3.22;;
46407;SDS011;32110;45.724;21.276;2024-03-07T13:33:01;4.97;;;3.45;;
46407;SDS011;32110;45.724;21.276;2024-03-07T13:35:28;5.18;;;3.47;;
46407;SDS011;32110;45.724;21.276;2024-03-07T13:37:54;4.60;;;3.28;;
46407;SDS011;32110;45.724;21.276;2024-03-07T13:40:24;5.68;;;3.25;;
46407;SDS011;32110;45.724;21.276;2024-03-07T13:42:55;5.45;;;3.25;;
46407;SDS011;32110;45.724;21.276;2024-03-07T13:45:31;4.82;;;3.08;;
46407;SDS011;32110;45.724;21.276;2024-03-07T13:48:02;6.93;;;3.25;;
46407;SDS011;32110;45.724;21.276;2024-03-07T13:50:30;4.63;;;3.07;;
46407;SDS011;32110;45.724;21.276;2024-03-07T13:52:57;5.57;;;3.40;;
46407;SDS011;32110;45.724;21.276;2024-03-07T14:27:23;4.90;;;3.15;;
46407;SDS011;32110;45.724;21.276;2024-03-07T14:32:39;4.07;;;2.67;;
46407;SDS011;32110;45.724;21.276;2024-03-07T14:37:46;4.07;;;2.78;;
46407;SDS011;32110;45.724;21.276;2024-03-07T14:40:18;3.42;;;2.42;;
46407;SDS011;32110;45.724;21.276;2024-03-07T14:42:47;3.92;;;2.60;;
46407;SDS011;32110;45.724;21.276;2024-03-07T14:45:21;3.63;;;2.67;;
46407;SDS011;32110;45.724;21.276;2024-03-07T14:47:48;3.85;;;2.83;;
46407;SDS011;32110;45.724;21.276;2024-03-07T14:50:17;4.82;;;3.30;;
46407;SDS011;32110;45.724;21.276;2024-03-07T14:52:45;6.03;;;4.07;;
46407;SDS011;32110;45.724;21.276;2024-03-07T14:55:12;4.97;;;3.47;;
46407;SDS011;32110;45.724;21.276;2024-03-07T14:57:44;4.65;;;3.60;;
46407;SDS011;32110;45.724;21.276;2024-03-07T15:00:11;7.07;;;4.28;;
46407;SDS011;32110;45.724;21.276;2024-03-07T15:02:47;6.82;;;3.83;;
46407;SDS011;32110;45.724;21.276;2024-03-07T15:05:15;6.30;;;3.90;;
46407;SDS011;32110;45.724;21.276;2024-03-07T15:07:41;5.53;;;3.63;;
46407;SDS011;32110;45.724;21.276;2024-03-07T15:13:10;4.53;;;3.35;;
46407;SDS011;32110;45.724;21.276;2024-03-07T15:15:37;4.25;;;3.17;;
46407;SDS011;32110;45.724;21.276;2024-03-07T15:18:08;4.43;;;3.22;;